Time;durP1;ratioP1;P1;durP2;ratioP2;P2;SDS_P1;SDS_P2;PMS_P1;PMS_P2;Temp;Humidity;BMP_temperature;BMP_pressure;BME280_temperature;BME280_humidity;BME280_pressure;Samples;Min_cycle;Max_cycle;Signal;HPM_P1;HPM_P2
2022/12/25 00:01:08;;;;;;;12.50;11.40;;;;;;;21.61;37.89;95333.00;6198843;28;103597;-61
2022/12/25 00:04:12;;;;;;;12.63;11.53;;;;;;;21.64;38.01;95329.75;6198620;28;102903;-62
2022/12/25 00:07:15;;;;;;;12.77;11.67;;;;;;;21.64;37.91;95331.63;6189152;28;103199;-62
2022/12/25 00:10:18;;;;;;;11.83;10.83;;;;;;;21.51;37.85;95310.03;6200530;28;102951;-62
2022/12/25 00:13:21;;;;;;;12.60;11.40;;;;;;;21.63;38.12;95330.81;6218475;28;104616;-61
2022/12/25 00:16:26;;;;;;;11.53;10.63;;;;;;;21.57;37.80;95329.34;6212666;28;103441;-61
2022/12/25 00:19:29;;;;;;;12.50;11.40;;;;;;;21.63;38.30;95330.81;6197534;28;103065;-61
2022/12/25 00:22:32;;;;;;;12.10;11.00;;;;;;;21.65;37.71;95343.84;6196438;28;103278;-61
2022/12/25 00:25:39;;;;;;;11.90;10.90;;;;;;;21.60;37.93;95342.06;6209812;28;103363;-61
2022/12/25 00:28:43;;;;;;;12.03;10.93;;;;;;;21.63;38.06;95356.66;6195375;28;103780;-62
2022/12/25 00:31:47;;;;;;;11.70;10.70;;;;;;;21.63;38.10;95360.13;6215619;28;103579;-61
2022/12/25 00:34:50;;;;;;;11.63;10.60;;;;;;;21.63;38.03;95362.78;6216506;28;103044;-62
2022/12/25 00:37:53;;;;;;;11.90;10.80;;;;;;;21.63;37.84;95377.97;6206299;28;103916;-62
2022/12/25 00:40:56;;;;;;;10.63;9.83;;;;;;;21.63;37.80;95373.44;6185730;28;103789;-61
2022/12/25 00:43:59;;;;;;;12.20;11.20;;;;;;;21.63;37.98;95372.66;6175512;28;104896;-62
2022/12/25 00:47:04;;;;;;;10.53;9.73;;;;;;;21.59;38.15;95369.00;6203507;28;104133;-65
2022/12/25 00:50:08;;;;;;;10.13;9.33;;;;;;;21.63;37.98;95377.97;6195394;28;104020;-61
2022/12/25 00:53:11;;;;;;;10.90;10.00;;;;;;;21.62;37.67;95379.06;6186861;28;102869;-63
2022/12/25 00:56:14;;;;;;;10.10;9.20;;;;;;;21.61;37.94;95375.59;6191463;28;103981;-62
2022/12/25 00:59:17;;;;;;;10.00;9.10;;;;;;;21.59;38.12;95367.13;6201528;28;104359;-65
2022/12/25 01:02:25;;;;;;;9.60;8.80;;;;;;;21.59;37.52;95371.66;6219752;28;103721;-62
2022/12/25 01:05:28;;;;;;;9.87;9.07;;;;;;;21.61;37.76;95372.94;6206269;28;103206;-62
2022/12/25 01:08:34;;;;;;;9.20;8.43;;;;;;;21.61;38.04;95369.50;6196122;28;103187;-62
2022/12/25 01:11:36;;;;;;;8.93;8.13;;;;;;;21.61;37.82;95374.81;6198667;28;104265;-62
2022/12/25 01:14:39;;;;;;;9.10;8.40;;;;;;;21.60;37.74;95368.72;6193459;28;105680;-64
2022/12/25 01:17:44;;;;;;;8.73;8.03;;;;;;;21.51;37.44;95357.97;6183082;28;105286;-62
2022/12/25 01:20:48;;;;;;;9.73;8.83;;;;;;;21.60;37.82;95382.03;6212339;28;104186;-61
2022/12/25 01:23:52;;;;;;;9.07;8.27;;;;;;;21.59;37.67;95371.66;6214192;28;103063;-61
2022/12/25 01:26:55;;;;;;;8.40;7.70;;;;;;;21.59;37.76;95371.66;6186532;28;104155;-61
2022/12/25 01:29:58;;;;;;;7.90;7.20;;;;;;;21.59;37.88;95369.00;6189263;28;103067;-63
2022/12/25 01:33:02;;;;;;;7.87;7.27;;;;;;;21.58;37.42;95370.88;6214603;28;103140;-61
2022/12/25 01:36:14;;;;;;;8.13;7.43;;;;;;;21.59;37.53;95369.00;6206580;28;105294;-62
2022/12/25 01:39:16;;;;;;;8.20;7.50;;;;;;;21.58;37.67;95368.22;6183193;28;104188;-61
2022/12/25 01:42:22;;;;;;;7.90;7.20;;;;;;;21.58;37.77;95372.75;6195827;28;104035;-62
2022/12/25 01:45:46;;;;;;;8.17;7.47;;;;;;;21.57;37.72;95369.31;6199094;28;104144;-62
2022/12/25 01:48:53;;;;;;;8.10;7.40;;;;;;;21.52;37.50;95370.19;6184076;28;104038;-64
2022/12/25 01:51:58;;;;;;;7.93;7.13;;;;;;;21.56;37.32;95381.03;6206597;28;104286;-63
2022/12/25 01:55:03;;;;;;;7.40;6.80;;;;;;;21.57;37.43;95387.94;6203339;28;103212;-62
2022/12/25 01:58:06;;;;;;;7.80;7.13;;;;;;;21.56;37.32;95373.03;6191033;28;104229;-63
2022/12/25 02:01:10;;;;;;;6.80;6.27;;;;;;;21.56;37.59;95373.03;6204963;28;103487;-62
2022/12/25 02:04:21;;;;;;;7.17;6.60;;;;;;;21.56;37.77;95383.69;6217961;28;105021;-66
2022/12/25 02:07:26;;;;;;;6.80;6.30;;;;;;;21.51;37.39;95373.94;6194148;28;102962;-62
2022/12/25 02:10:30;;;;;;;6.40;5.87;;;;;;;21.57;37.46;95390.59;6199696;28;103588;-61
2022/12/25 02:13:33;;;;;;;6.80;6.30;;;;;;;21.57;37.41;95384.50;6188423;28;102998;-62
2022/12/25 02:16:41;;;;;;;7.23;6.63;;;;;;;21.56;37.63;95391.69;6209042;28;104283;-61
2022/12/25 02:20:27;;;;;;;6.73;6.13;;;;;;;21.57;37.09;95384.50;6216586;28;105121;-66
2022/12/25 02:24:09;;;;;;;7.13;6.57;;;;;;;21.56;37.28;95381.03;6192168;28;104123;-62
2022/12/25 02:27:24;;;;;;;5.90;5.50;;;;;;;21.47;37.03;95364.16;6201117;28;103178;-64
2022/12/25 02:30:34;;;;;;;7.20;6.60;;;;;;;21.48;37.40;95371.84;6202869;28;104843;-66
2022/12/25 02:37:16;;;;;;;6.77;6.27;;;;;;;21.57;37.24;95384.50;6190476;28;103187;-64
2022/12/25 02:40:25;;;;;;;6.87;6.17;;;;;;;21.55;37.56;95382.13;6203450;28;106791;-65
2022/12/25 03:07:16;;;;;;;5.90;5.40;;;;;;;21.54;37.10;95396.53;6217583;28;103258;-66
2022/12/25 03:13:43;;;;;;;6.10;5.60;;;;;;;21.54;37.36;95401.84;6215641;28;104358;-66
2022/12/25 03:16:49;;;;;;;6.30;5.80;;;;;;;21.54;36.73;95411.72;6205946;28;103793;-66
2022/12/25 03:26:57;;;;;;;5.97;5.47;;;;;;;21.55;36.96;95421.28;6198905;28;103637;-66
2022/12/25 03:33:31;;;;;;;5.87;5.37;;;;;;;21.54;37.03;95422.34;6203589;27;103212;-66
2022/12/25 03:37:08;;;;;;;6.10;5.50;;;;;;;21.52;36.80;95423.44;6197502;28;104425;-65
2022/12/25 04:37:59;;;;;;;6.50;6.00;;;;;;;21.50;36.42;95454.88;6094876;28;103364;-66
2022/12/25 04:41:02;;;;;;;7.23;6.43;;;;;;;21.50;36.75;95470.84;6089536;28;103677;-67
2022/12/25 04:44:07;;;;;;;6.70;6.20;;;;;;;21.43;36.78;95451.81;6201707;28;104249;-67
2022/12/25 04:47:10;;;;;;;6.10;5.63;;;;;;;21.55;36.63;95475.31;6209118;28;103108;-67
2022/12/25 04:50:13;;;;;;;6.33;5.80;;;;;;;21.56;36.30;95481.44;6192187;28;103549;-67
2022/12/25 04:53:18;;;;;;;6.20;5.60;;;;;;;21.55;36.62;95478.00;6196830;28;103586;-68
2022/12/25 04:56:22;;;;;;;5.50;5.10;;;;;;;21.56;36.39;95473.44;6214042;28;104571;-68
2022/12/25 04:59:26;;;;;;;5.63;5.23;;;;;;;21.55;36.27;95485.97;6192008;28;103217;-68
2022/12/25 05:02:29;;;;;;;6.23;5.73;;;;;;;21.55;36.62;95482.53;6204162;28;103472;-68
2022/12/25 05:05:32;;;;;;;5.60;5.17;;;;;;;21.51;36.42;95483.09;6196828;28;105282;-67
2022/12/25 05:08:36;;;;;;;5.37;4.97;;;;;;;21.54;36.70;95491.59;6191146;28;104808;-68
2022/12/25 05:11:39;;;;;;;5.40;4.90;;;;;;;21.56;36.42;95489.44;6203967;28;103377;-68
2022/12/25 05:14:43;;;;;;;5.77;5.37;;;;;;;21.57;36.56;95488.34;6207732;28;107498;-67
2022/12/25 05:17:46;;;;;;;6.20;5.10;;;;;;;21.55;36.27;95485.97;6201621;28;103215;-68
2022/12/25 05:20:53;;;;;;;5.80;5.40;;;;;;;21.56;36.28;95492.09;6200544;28;103094;-68
2022/12/25 05:23:57;;;;;;;5.97;5.47;;;;;;;21.56;36.80;95484.09;6197477;28;102808;-67
2022/12/25 05:27:00;;;;;;;5.43;5.03;;;;;;;21.56;36.47;95484.09;6189144;28;103534;-68
2022/12/25 05:30:06;;;;;;;5.13;4.73;;;;;;;21.56;36.43;95484.09;6198548;28;103193;-68
2022/12/25 05:33:09;;;;;;;4.93;4.53;;;;;;;21.56;36.64;95492.88;6215169;28;102968;-68
2022/12/25 05:36:12;;;;;;;5.20;4.70;;;;;;;21.50;36.58;95489.47;6182161;28;104062;-68
2022/12/25 05:39:15;;;;;;;5.30;4.90;;;;;;;21.56;36.73;95502.75;6202251;28;103256;-68
2022/12/25 05:42:18;;;;;;;4.40;4.00;;;;;;;21.55;36.84;95499.28;6218772;28;106897;-67
2022/12/25 05:45:23;;;;;;;4.53;4.23;;;;;;;21.55;36.73;95511.81;6194606;28;103236;-67
2022/12/25 05:48:26;;;;;;;5.13;4.73;;;;;;;21.51;36.58;95503.63;6185477;28;105620;-67
2022/12/25 05:51:29;;;;;;;5.20;4.80;;;;;;;21.55;36.36;95509.94;6207912;28;106820;-68
2022/12/25 05:54:32;;;;;;;4.33;4.03;;;;;;;21.55;36.34;95512.59;6205371;28;103366;-67
2022/12/25 05:57:35;;;;;;;4.80;4.40;;;;;;;21.56;36.55;95510.72;6203325;28;104265;-67
2022/12/25 06:00:40;;;;;;;4.90;4.50;;;;;;;21.45;36.62;95513.53;6193259;28;104432;-68
2022/12/25 06:03:43;;;;;;;4.40;4.10;;;;;;;21.55;36.31;95528.59;6223505;28;104651;-68
2022/12/25 06:06:47;;;;;;;4.20;3.90;;;;;;;21.50;36.86;95524.09;6215195;28;102988;-67
2022/12/25 06:09:50;;;;;;;4.90;4.50;;;;;;;21.54;36.27;95534.19;6192219;28;103803;-67
2022/12/25 06:12:54;;;;;;;5.00;4.50;;;;;;;21.48;36.58;95539.59;6189398;28;103757;-67
2022/12/25 06:15:59;;;;;;;4.53;4.23;;;;;;;21.49;36.46;95548.34;6214978;28;104218;-66
2022/12/25 06:19:02;;;;;;;3.50;3.20;;;;;;;21.52;36.54;95553.94;6210883;28;103229;-66
2022/12/25 06:22:05;;;;;;;4.30;3.90;;;;;;;21.54;36.33;95552.84;6201554;28;103239;-66
2022/12/25 06:25:09;;;;;;;3.83;3.53;;;;;;;21.57;36.36;95568.25;6210337;28;107494;-66
2022/12/25 06:28:12;;;;;;;4.17;3.67;;;;;;;21.59;35.99;95566.06;6201205;28;106101;-66
2022/12/25 06:31:20;;;;;;;17.77;16.40;;;;;;;21.56;36.27;95569.31;6204199;28;103207;-65
2022/12/25 06:34:23;;;;;;;8.50;6.97;;;;;;;21.57;36.17;95566.38;6188607;28;104242;-64
2022/12/25 06:37:26;;;;;;;9.60;8.90;;;;;;;21.57;36.35;95576.22;6216300;28;103117;-66
2022/12/25 06:40:29;;;;;;;11.40;10.50;;;;;;;21.56;36.31;95570.09;6220298;28;103472;-65
2022/12/25 06:43:33;;;;;;;11.80;10.80;;;;;;;21.55;36.27;95576.50;6201588;28;104435;-65
2022/12/25 06:46:37;;;;;;;12.83;11.60;;;;;;;21.57;36.24;95584.22;6188291;27;103334;-64
2022/12/25 06:49:40;;;;;;;14.10;12.70;;;;;;;21.56;36.66;95591.41;6188814;28;103454;-67
2022/12/25 06:52:43;;;;;;;11.70;10.90;;;;;;;21.50;36.46;95603.19;6199519;28;103494;-70
2022/12/25 06:55:46;;;;;;;11.87;10.87;;;;;;;21.51;36.84;95605.59;6203579;28;102861;-66
2022/12/25 06:58:51;;;;;;;12.03;10.83;;;;;;;21.51;36.46;95616.25;6205302;28;103987;-68
2022/12/25 07:01:57;;;;;;;11.07;10.20;;;;;;;21.55;36.40;95602.34;6196475;28;103602;-67
2022/12/25 07:05:01;;;;;;;10.07;9.13;;;;;;;22.06;35.28;95615.72;6202395;28;105607;-67
2022/12/25 07:08:05;;;;;;;10.30;8.77;;;;;;;22.37;34.69;95626.69;6186802;28;103756;-69
2022/12/25 07:11:08;;;;;;;9.10;8.30;;;;;;;22.53;34.27;95638.69;6200727;28;104012;-68
2022/12/25 07:14:17;;;;;;;9.40;8.43;;;;;;;22.41;34.28;95617.00;6201676;28;104332;-67
2022/12/25 07:17:27;;;;;;;8.23;7.60;;;;;;;22.64;33.61;95637.41;6188206;28;103057;-66
2022/12/25 07:20:30;;;;;;;8.33;7.53;;;;;;;22.66;33.58;95626.44;6180624;28;103322;-68
2022/12/25 07:23:34;;;;;;;9.20;8.40;;;;;;;22.69;33.82;95637.34;6197288;28;104115;-68
2022/12/25 07:26:38;;;;;;;11.87;10.67;;;;;;;22.49;34.58;95639.53;6201117;28;103169;-68
2022/12/25 07:29:41;;;;;;;12.07;11.07;;;;;;;22.40;34.64;95636.75;6190880;28;104483;-67
2022/12/25 07:32:45;;;;;;;11.70;10.60;;;;;;;22.38;35.00;95628.25;6185284;28;103313;-68
2022/12/25 07:35:52;;;;;;;12.77;11.77;;;;;;;22.39;35.67;95637.84;6195305;28;106344;-68
2022/12/25 07:38:55;;;;;;;13.23;12.13;;;;;;;22.45;34.75;95649.22;6200700;28;103443;-69
2022/12/25 07:41:58;;;;;;;15.80;12.33;;;;;;;22.46;35.14;95656.13;6193459;28;103665;-68
2022/12/25 07:45:02;;;;;;;11.40;10.50;;;;;;;22.47;35.73;95666.50;6195639;28;103372;-68
2022/12/25 07:48:07;;;;;;;10.50;9.60;;;;;;;22.50;35.49;95663.25;6199957;28;103249;-68
2022/12/25 07:51:18;;;;;;;10.70;9.80;;;;;;;22.52;35.50;95666.44;6195472;28;104313;-69
2022/12/25 07:54:21;;;;;;;11.63;10.53;;;;;;;22.55;35.60;95670.38;6189860;28;104129;-68
2022/12/25 07:57:24;;;;;;;11.67;10.60;;;;;;;22.49;36.06;95677.66;6201067;28;104049;-69
2022/12/25 08:00:31;;;;;;;13.80;5.97;;;;;;;22.27;35.43;95680.97;6215918;28;103244;-69
2022/12/25 08:03:36;;;;;;;3.77;3.43;;;;;;;22.15;34.69;95685.16;6195247;28;103515;-68
2022/12/25 08:06:39;;;;;;;3.93;3.60;;;;;;;22.09;34.54;95687.91;6184968;28;104345;-71
2022/12/25 08:09:42;;;;;;;3.73;3.20;;;;;;;22.02;33.81;95690.16;6212864;28;104728;-68
2022/12/25 08:12:45;;;;;;;71.00;44.67;;;;;;;21.97;33.62;95698.19;6218879;28;104332;-68
2022/12/25 08:15:48;;;;;;;107.20;82.53;;;;;;;22.01;32.93;95672.56;6194989;28;103061;-68
2022/12/25 08:18:53;;;;;;;84.10;73.03;;;;;;;22.09;32.85;95679.91;6188016;28;103394;-68
2022/12/25 08:21:56;;;;;;;93.20;84.00;;;;;;;22.13;33.08;95674.78;6199952;28;103174;-69
2022/12/25 08:25:00;;;;;;;88.73;79.50;;;;;;;22.22;33.60;95669.59;6195708;28;103215;-70
2022/12/25 08:28:03;;;;;;;77.00;69.00;;;;;;;22.35;33.52;95679.53;6185943;28;104675;-67
2022/12/25 08:31:08;;;;;;;86.07;77.77;;;;;;;22.39;33.69;95664.50;6197360;28;103900;-68
2022/12/25 08:34:13;;;;;;;84.43;76.33;;;;;;;22.41;33.57;95657.00;6200633;28;103346;-68
2022/12/25 08:37:16;;;;;;;80.80;72.80;;;;;;;22.56;33.64;95651.41;6190919;28;103924;-65
2022/12/25 08:40:19;;;;;;;83.57;75.47;;;;;;;22.64;33.71;95657.97;6191167;28;105555;-67
2022/12/25 08:43:22;;;;;;;79.53;71.93;;;;;;;22.59;33.78;95661.53;6202741;28;103218;-68
2022/12/25 08:46:25;;;;;;;82.93;75.00;;;;;;;22.49;34.19;95667.00;6196360;28;103180;-68
2022/12/25 08:49:29;;;;;;;77.20;70.27;;;;;;;22.47;34.46;95673.72;6198843;28;104425;-68
2022/12/25 08:52:32;;;;;;;79.80;72.30;;;;;;;22.38;34.60;95663.72;6194765;28;104617;-68
2022/12/25 08:55:36;;;;;;;77.07;69.70;;;;;;;22.37;34.49;95680.00;6212817;28;103379;-69
2022/12/25 08:58:39;;;;;;;71.80;65.20;;;;;;;22.30;34.33;95674.25;6200663;28;103321;-68
2022/12/25 09:01:42;;;;;;;65.17;59.07;;;;;;;22.24;34.20;95678.09;6188413;28;103591;-67
2022/12/25 09:04:47;;;;;;;58.17;52.80;;;;;;;22.27;34.10;95674.84;6196129;28;104060;-65
2022/12/25 09:07:50;;;;;;;53.80;48.50;;;;;;;22.37;33.97;95672.00;6184926;28;103934;-65
2022/12/25 09:10:53;;;;;;;51.60;46.83;;;;;;;22.47;34.66;95671.84;6191802;28;103122;-65
2022/12/25 09:13:56;;;;;;;50.57;45.77;;;;;;;22.48;34.31;95675.28;6184483;28;104390;-65
2022/12/25 09:16:59;;;;;;;49.63;45.13;;;;;;;22.46;34.60;95678.25;6191765;28;103312;-65
2022/12/25 09:20:04;;;;;;;48.90;44.23;;;;;;;22.46;33.96;95675.59;6214192;27;103587;-67
2022/12/25 09:23:08;;;;;;;46.40;42.20;;;;;;;22.43;34.03;95670.84;6227112;28;103688;-66
2022/12/25 09:26:17;;;;;;;45.80;41.80;;;;;;;22.47;34.31;95671.84;6211664;27;103830;-66
2022/12/25 09:29:20;;;;;;;44.50;40.30;;;;;;;22.46;34.01;95670.25;6199927;28;103184;-66
2022/12/25 09:32:23;;;;;;;42.77;38.80;;;;;;;22.49;34.29;95677.66;6206301;28;103215;-67
2022/12/25 09:35:28;;;;;;;41.43;37.53;;;;;;;22.54;34.22;95676.81;6202307;28;103369;-66
2022/12/25 09:38:31;;;;;;;40.27;36.57;;;;;;;22.58;33.76;95673.28;6199274;27;104557;-66
2022/12/25 09:41:40;;;;;;;39.83;36.23;;;;;;;22.60;33.63;95673.78;6227932;28;103578;-66
2022/12/25 09:44:45;;;;;;;39.10;35.57;;;;;;;22.67;33.65;95668.84;6205921;28;103269;-67
2022/12/25 09:47:49;;;;;;;37.37;34.07;;;;;;;22.71;33.50;95677.06;6190677;28;105769;-66
2022/12/25 09:50:59;;;;;;;37.50;33.97;;;;;;;22.75;33.49;95669.25;6198676;28;103474;-67
2022/12/25 09:54:09;;;;;;;35.03;31.90;;;;;;;22.79;33.86;95672.91;6202852;28;103311;-66
2022/12/25 09:57:13;;;;;;;36.30;32.90;;;;;;;22.75;33.57;95669.25;6209485;28;103054;-68
2022/12/25 10:00:18;;;;;;;31.20;28.40;;;;;;;22.76;34.23;95665.50;6197885;28;108071;-70
2022/12/25 10:03:38;;;;;;;28.97;26.30;;;;;;;22.76;34.30;95665.50;6208573;28;103363;-70
2022/12/25 10:06:55;;;;;;;26.80;24.30;;;;;;;22.78;34.37;95669.47;6199749;28;103326;-68
2022/12/25 10:10:12;;;;;;;25.10;22.90;;;;;;;22.81;34.12;95663.53;6237308;22;103293;-79
2022/12/25 10:13:33;;;;;;;23.27;20.87;;;;;;;22.78;34.74;95666.00;6189524;28;105195;-78
2022/12/25 10:16:51;;;;;;;22.60;20.30;;;;;;;22.66;34.99;95645.13;6214850;28;103341;-81
2022/12/25 10:20:02;;;;;;;21.03;19.03;;;;;;;22.83;34.77;95657.91;6215767;22;103873;-68
2022/12/25 10:23:16;;;;;;;17.13;15.60;;;;;;;22.74;34.80;95649.78;6167674;28;105659;-66
2022/12/25 10:26:20;;;;;;;17.07;15.40;;;;;;;22.82;35.21;95661.66;6191984;28;102953;-67
2022/12/25 10:29:23;;;;;;;15.40;13.90;;;;;;;22.66;34.98;95639.78;6165562;28;103074;-67
2022/12/25 10:32:27;;;;;;;15.10;13.00;;;;;;;22.77;34.73;95667.88;6189368;28;103028;-68
2022/12/25 10:35:31;;;;;;;13.67;12.37;;;;;;;22.68;35.12;95653.63;6176884;28;104591;-68
2022/12/25 10:38:36;;;;;;;13.10;11.90;;;;;;;22.85;34.81;95659.22;6180463;28;105694;-68
2022/12/25 10:41:59;;;;;;;12.50;11.40;;;;;;;22.91;34.83;95662.56;6183136;28;103517;-68
2022/12/25 10:45:06;;;;;;;14.40;13.17;;;;;;;22.86;35.36;95665.34;6168077;28;105177;-69
2022/12/25 10:48:19;;;;;;;15.70;14.30;;;;;;;22.91;35.54;95662.56;6172549;28;105936;-67
2022/12/25 10:51:30;;;;;;;16.03;14.53;;;;;;;22.91;35.20;95670.56;6171060;28;103226;-66
2022/12/25 10:54:36;;;;;;;16.30;14.80;;;;;;;22.92;34.84;95672.16;6185482;28;102918;-67
2022/12/25 10:57:46;;;;;;;16.13;14.60;;;;;;;22.89;35.37;95667.41;6167611;28;104156;-67
2022/12/25 11:00:53;;;;;;;16.50;15.00;;;;;;;22.91;34.95;95673.25;6186688;28;102857;-68
2022/12/25 11:03:57;;;;;;;15.20;13.77;;;;;;;22.86;35.42;95666.13;6186937;28;103293;-67
2022/12/25 11:07:05;;;;;;;16.30;14.60;;;;;;;22.86;35.11;95660.00;6184075;28;103299;-68
2022/12/25 11:10:22;;;;;;;15.80;14.20;;;;;;;22.86;35.30;95660.78;6168318;28;104848;-68
2022/12/25 11:13:27;;;;;;;14.77;13.50;;;;;;;22.83;34.96;95676.56;6184062;28;103160;-68
2022/12/25 11:16:38;;;;;;;14.60;13.03;;;;;;;22.72;35.33;95680.53;6176091;28;103114;-66
2022/12/25 11:19:52;;;;;;;10.77;9.77;;;;;;;22.61;34.73;95674.56;6191948;28;103523;-67
2022/12/25 11:22:55;;;;;;;9.37;7.60;;;;;;;22.53;34.01;95677.88;6211166;28;103252;-67
2022/12/25 11:26:02;;;;;;;7.83;5.63;;;;;;;22.47;33.42;95661.16;6210709;28;103180;-67
2022/12/25 11:29:17;;;;;;;6.77;6.07;;;;;;;22.47;33.37;95652.38;6201970;28;106035;-67
2022/12/25 11:32:26;;;;;;;7.50;6.80;;;;;;;22.54;33.44;95669.59;6200643;28;103655;-67
2022/12/25 11:35:45;;;;;;;7.90;7.10;;;;;;;22.60;33.38;95665.78;6209147;28;103323;-67
2022/12/25 11:38:48;;;;;;;9.60;6.90;;;;;;;22.62;33.48;95666.28;6201484;28;105182;-68
2022/12/25 11:41:57;;;;;;;9.53;7.47;;;;;;;22.66;33.64;95663.81;6205318;28;104309;-68
2022/12/25 11:45:05;;;;;;;8.30;7.50;;;;;;;22.65;34.29;95670.22;6160751;28;105319;-68
2022/12/25 11:48:14;;;;;;;9.40;8.43;;;;;;;22.64;34.48;95658.75;6192397;28;103117;-66
2022/12/25 11:51:18;;;;;;;8.83;8.10;;;;;;;22.61;34.67;95671.91;6208867;28;103237;-68
2022/12/25 11:54:27;;;;;;;8.47;7.67;;;;;;;22.57;34.62;95665.56;6200008;28;104093;-67
2022/12/25 11:57:34;;;;;;;10.47;9.57;;;;;;;22.50;34.72;95655.25;6198786;28;103222;-68
2022/12/25 12:00:38;;;;;;;9.10;8.20;;;;;;;22.53;34.54;95675.22;6204703;28;104526;-67
2022/12/25 12:03:42;;;;;;;9.23;8.43;;;;;;;22.55;34.54;95671.19;6206605;28;103605;-67
2022/12/25 12:06:50;;;;;;;10.17;8.67;;;;;;;22.56;35.25;95672.75;6199169;28;104164;-67
2022/12/25 12:10:02;;;;;;;8.83;8.03;;;;;;;22.55;34.79;95671.19;6203338;28;103602;-67
2022/12/25 12:13:25;;;;;;;8.67;7.87;;;;;;;22.53;35.13;95669.88;6209770;28;103761;-67
2022/12/25 12:16:29;;;;;;;8.40;7.60;;;;;;;22.55;34.96;95673.84;6207030;28;103647;-67
2022/12/25 12:19:33;;;;;;;9.00;8.10;;;;;;;22.47;35.67;95663.81;6189728;28;103260;-67
2022/12/25 12:22:36;;;;;;;9.80;7.87;;;;;;;22.54;35.50;95668.81;6207355;28;103107;-67
2022/12/25 12:25:41;;;;;;;8.40;7.70;;;;;;;22.52;36.04;95676.31;6204589;28;105759;-66
2022/12/25 12:28:48;;;;;;;7.53;6.87;;;;;;;22.51;35.63;95680.03;6191562;28;104207;-67
2022/12/25 12:31:52;;;;;;;8.30;7.50;;;;;;;22.47;35.87;95687.84;6206187;28;103266;-67
2022/12/25 12:34:56;;;;;;;8.83;7.57;;;;;;;22.39;36.17;95688.50;6207229;28;103004;-66
2022/12/25 12:38:04;;;;;;;7.73;7.00;;;;;;;22.42;36.01;95691.38;6197308;28;103151;-68
2022/12/25 12:41:08;;;;;;;8.13;7.10;;;;;;;22.38;36.78;95692.25;6195634;28;104427;-67
2022/12/25 12:44:15;;;;;;;8.07;7.27;;;;;;;22.37;36.46;95685.34;6206859;28;103258;-67
2022/12/25 12:47:37;;;;;;;8.23;7.53;;;;;;;22.37;36.88;95690.69;6196310;28;104147;-68
2022/12/25 12:50:42;;;;;;;8.33;7.60;;;;;;;22.34;36.72;95691.25;6206862;28;104141;-67
2022/12/25 12:53:45;;;;;;;8.10;7.40;;;;;;;22.34;36.59;95702.69;6197396;28;103081;-67
2022/12/25 12:56:59;;;;;;;7.73;7.03;;;;;;;22.33;37.12;95708.31;6206707;28;104029;-69
2022/12/25 13:00:05;;;;;;;7.70;7.00;;;;;;;22.31;37.55;95707.81;6202159;28;104000;-67
2022/12/25 13:03:30;;;;;;;7.53;6.83;;;;;;;22.31;37.33;95707.81;6199025;28;103464;-68
2022/12/25 13:06:40;;;;;;;7.83;7.13;;;;;;;22.29;37.77;95713.44;6208327;28;102789;-67
2022/12/25 13:09:59;;;;;;;8.73;7.77;;;;;;;22.29;38.19;95702.00;6195811;28;103547;-67
2022/12/25 13:13:06;;;;;;;10.50;9.50;;;;;;;22.30;38.37;95708.91;6204799;28;103584;-67
2022/12/25 13:16:22;;;;;;;11.50;10.30;;;;;;;22.24;38.11;95702.09;6199018;28;104915;-67
2022/12/25 13:19:28;;;;;;;11.77;10.53;;;;;;;22.22;37.97;95710.38;6195706;28;103109;-68
2022/12/25 13:22:33;;;;;;;13.20;10.83;;;;;;;22.23;37.98;95703.16;6204693;28;103508;-67
2022/12/25 13:25:36;;;;;;;12.10;10.90;;;;;;;22.22;38.33;95706.91;6204451;28;103231;-68
2022/12/25 13:28:39;;;;;;;16.70;11.97;;;;;;;22.21;38.52;95708.00;6193943;28;103636;-67
2022/12/25 13:31:44;;;;;;;16.43;14.63;;;;;;;22.22;37.35;95709.59;6207958;28;104388;-66
2022/12/25 13:34:48;;;;;;;12.77;10.20;;;;;;;22.30;37.41;95711.56;6204219;28;103289;-66
2022/12/25 13:37:51;;;;;;;20.53;18.40;;;;;;;22.26;37.35;95707.91;6191088;28;104605;-66
2022/12/25 13:44:27;;;;;;;33.13;29.77;;;;;;;22.26;37.36;95699.91;6165179;28;103128;-68
2022/12/25 13:47:33;;;;;;;29.47;26.57;;;;;;;22.22;38.06;95698.91;6197183;28;103162;-68
2022/12/25 13:50:37;;;;;;;29.70;26.57;;;;;;;22.25;37.70;95704.47;6188317;28;103276;-66
2022/12/25 13:53:40;;;;;;;28.60;25.97;;;;;;;22.24;37.83;95686.09;6209477;28;103464;-66
2022/12/25 13:56:48;;;;;;;27.90;25.10;;;;;;;22.28;38.36;95703.88;6209215;28;102771;-65
2022/12/25 13:59:51;;;;;;;25.47;22.97;;;;;;;22.27;37.99;95704.16;6209694;28;103297;-67
2022/12/25 14:02:56;;;;;;;24.27;21.80;;;;;;;22.26;38.42;95719.38;6184991;28;103809;-68
2022/12/25 14:06:01;;;;;;;19.73;17.63;;;;;;;22.23;38.21;95705.84;6209580;28;103105;-66
2022/12/25 14:09:04;;;;;;;19.37;17.47;;;;;;;22.28;38.34;95709.19;6212598;28;103075;-66
2022/12/25 14:12:08;;;;;;;18.00;16.20;;;;;;;22.24;38.35;95708.22;6209644;28;103383;-67
2022/12/25 14:15:22;;;;;;;17.43;15.83;;;;;;;22.32;38.36;95720.06;6211683;28;106069;-66
2022/12/25 14:18:27;;;;;;;17.90;16.10;;;;;;;22.34;38.10;95723.25;6212508;28;103624;-67
2022/12/25 14:21:33;;;;;;;16.40;14.80;;;;;;;22.35;38.33;95719.53;6213232;28;104140;-68
2022/12/25 14:24:36;;;;;;;15.33;13.93;;;;;;;22.35;38.03;95719.53;6202370;28;103488;-67
2022/12/25 14:27:40;;;;;;;15.43;14.03;;;;;;;22.35;38.60;95720.31;6189579;28;102803;-66
2022/12/25 14:30:43;;;;;;;15.10;13.63;;;;;;;22.37;38.55;95725.34;6189017;28;104233;-66
2022/12/25 14:33:48;;;;;;;13.90;12.50;;;;;;;22.37;38.59;95726.13;6212671;28;103047;-66
2022/12/25 14:36:52;;;;;;;14.40;13.00;;;;;;;22.36;38.95;95732.56;6203076;28;103155;-67
2022/12/25 14:39:58;;;;;;;14.37;12.87;;;;;;;22.34;39.02;95736.56;6212956;28;103049;-66
2022/12/25 14:43:04;;;;;;;14.23;12.93;;;;;;;22.35;38.56;95735.50;6213567;28;103746;-67
2022/12/25 14:46:07;;;;;;;14.23;12.93;;;;;;;22.33;38.95;95732.31;6208710;28;103444;-65
2022/12/25 14:49:24;;;;;;;13.60;12.20;;;;;;;22.35;38.92;95735.50;6208418;28;103026;-66
2022/12/25 14:52:30;;;;;;;13.50;12.30;;;;;;;22.33;38.88;95727.78;6212801;28;103023;-65
2022/12/25 14:55:33;;;;;;;13.10;11.90;;;;;;;22.27;38.93;95723.63;6212410;28;104103;-66
2022/12/25 14:58:41;;;;;;;13.20;12.00;;;;;;;22.26;39.25;95734.56;6201947;28;103024;-66
2022/12/25 15:01:50;;;;;;;12.97;11.77;;;;;;;22.24;39.10;95729.53;6212584;28;103123;-67
2022/12/25 15:04:55;;;;;;;12.10;11.03;;;;;;;22.11;39.16;95708.94;6213067;28;104178;-67
2022/12/25 15:08:17;;;;;;;12.80;11.60;;;;;;;22.20;38.94;95733.88;6212398;28;103107;-68
2022/12/25 15:11:20;;;;;;;11.93;10.83;;;;;;;22.22;39.08;95725.56;6198868;28;104219;-63
2022/12/25 15:14:24;;;;;;;12.83;11.67;;;;;;;22.27;36.03;95723.63;6203187;28;103532;-64
2022/12/25 15:17:30;;;;;;;13.27;12.10;;;;;;;22.28;35.64;95730.53;6207739;28;103277;-64
2022/12/25 15:20:35;;;;;;;14.30;12.97;;;;;;;22.26;35.91;95721.25;6191034;28;103161;-64
2022/12/25 15:23:38;;;;;;;13.00;11.90;;;;;;;22.35;35.58;95738.97;6209042;28;103248;-64
2022/12/25 15:26:41;;;;;;;14.70;13.30;;;;;;;22.36;35.71;95740.56;6206364;28;103132;-63
2022/12/25 15:29:44;;;;;;;14.07;12.97;;;;;;;22.36;35.97;95737.88;6210957;28;103950;-63
2022/12/25 15:33:12;;;;;;;12.40;11.40;;;;;;;22.39;35.88;95737.31;6196121;28;106385;-62
2022/12/25 15:36:17;;;;;;;12.80;11.70;;;;;;;22.45;36.96;95734.56;6205477;28;104305;-63
2022/12/25 15:39:20;;;;;;;12.27;11.20;;;;;;;22.44;37.64;95746.31;6198451;28;103197;-63
2022/12/25 15:42:24;;;;;;;11.60;10.50;;;;;;;22.42;37.22;95751.94;6200331;28;103859;-63
2022/12/25 15:45:29;;;;;;;12.00;10.83;;;;;;;22.41;37.69;95751.13;6197274;28;104234;-62
2022/12/25 15:48:32;;;;;;;12.20;11.10;;;;;;;22.40;38.02;95749.56;6209521;28;103252;-63
2022/12/25 15:51:36;;;;;;;11.70;10.57;;;;;;;22.42;38.00;95751.94;6197105;28;104246;-61
2022/12/25 15:54:40;;;;;;;10.80;9.80;;;;;;;22.41;37.66;95753.81;6191716;28;103023;-61
2022/12/25 15:57:45;;;;;;;10.60;9.70;;;;;;;22.32;37.56;95749.41;6204039;28;103163;-62